Time;durP1;ratioP1;P1;durP2;ratioP2;P2;SDS_P1;SDS_P2;PMS_P1;PMS_P2;Temp;Humidity;BMP_temperature;BMP_pressure;BME280_temperature;BME280_humidity;BME280_pressure;Samples;Min_cycle;Max_cycle;Signal;HPM_P1;HPM_P2
2023/10/13 00:00:25;;;;;;;15.88;7.90;;;;;;;20.51;68.99;100785.60;2279242;77;52407;-72
2023/10/13 00:03:18;;;;;;;23.32;7.47;;;;;;;20.49;69.21;100779.06;2291124;76;23196;-73
2023/10/13 00:06:21;;;;;;;21.42;7.92;;;;;;;20.49;69.09;100775.03;2339833;76;50572;-71
2023/10/13 00:09:25;;;;;;;23.57;7.83;;;;;;;20.52;69.05;100771.95;2302335;76;51791;-73
2023/10/13 00:12:31;;;;;;;21.50;8.70;;;;;;;20.55;69.07;100765.39;2339039;75;51583;-72
2023/10/13 00:15:38;;;;;;;18.40;7.50;;;;;;;20.57;68.97;100760.13;2339472;74;23303;-72
2023/10/13 00:18:45;;;;;;;22.00;8.65;;;;;;;20.56;69.04;100761.17;2314934;76;22866;-71
2023/10/13 00:21:42;;;;;;;21.20;7.42;;;;;;;20.57;69.00;100753.41;2339088;75;22505;-73
2023/10/13 00:24:51;;;;;;;18.92;7.15;;;;;;;20.58;68.94;100752.41;2278508;76;22515;-70
2023/10/13 00:27:51;;;;;;;25.23;7.50;;;;;;;20.57;69.04;100748.04;2303074;76;22313;-72
2023/10/13 00:30:52;;;;;;;19.70;6.67;;;;;;;20.58;69.00;100748.38;2308300;76;22386;-72
2023/10/13 00:34:01;;;;;;;19.40;6.65;;;;;;;20.59;68.91;100741.96;2277368;76;51707;-72
2023/10/13 00:37:12;;;;;;;19.00;7.15;;;;;;;20.57;69.09;100745.35;2293960;76;23261;-74
2023/10/13 00:40:41;;;;;;;17.75;7.53;;;;;;;20.56;69.07;100746.39;2299943;76;51534;-72
2023/10/13 00:46:33;;;;;;;24.27;7.58;;;;;;;20.58;69.23;100752.93;2344681;75;22529;-72
2023/10/13 00:49:30;;;;;;;14.50;6.40;;;;;;;20.56;69.31;100740.19;2342242;75;22346;-73
2023/10/13 00:52:32;;;;;;;18.82;6.80;;;;;;;20.59;69.13;100743.83;2342685;75;23063;-71
2023/10/13 00:55:35;;;;;;;15.35;6.67;;;;;;;20.59;69.06;100732.55;2342891;76;51523;-70
2023/10/13 00:58:40;;;;;;;24.43;7.42;;;;;;;20.58;69.15;100730.08;2317910;76;51800;-70
2023/10/13 01:01:43;;;;;;;20.35;6.58;;;;;;;20.60;69.06;100734.23;2338041;75;50740;-73
2023/10/13 01:04:46;;;;;;;15.80;5.90;;;;;;;20.58;69.17;100732.25;2248217;77;51519;-74
2023/10/13 01:08:01;;;;;;;19.95;6.87;;;;;;;20.57;69.12;100734.59;2285207;77;50693;-76
2023/10/13 01:10:53;;;;;;;18.10;6.95;;;;;;;20.58;69.16;100732.25;2234184;77;22463;-76
2023/10/13 01:13:56;;;;;;;15.72;6.33;;;;;;;20.58;69.21;100732.25;2210846;77;52628;-76
2023/10/13 01:17:01;;;;;;;21.23;7.20;;;;;;;20.58;69.15;100728.21;2258320;77;50306;-76
2023/10/13 01:20:04;;;;;;;18.82;6.10;;;;;;;20.57;69.19;100723.02;2258703;77;22463;-76
2023/10/13 01:23:18;;;;;;;15.60;6.10;;;;;;;20.57;69.17;100729.74;2211484;77;52524;-76
2023/10/13 01:26:21;;;;;;;18.37;5.97;;;;;;;20.57;69.19;100727.05;2284447;77;22917;-73
2023/10/13 01:29:19;;;;;;;16.25;6.45;;;;;;;20.57;69.15;100726.53;2285116;76;22337;-74
2023/10/13 01:32:23;;;;;;;15.03;5.80;;;;;;;20.58;69.17;100735.45;2304152;76;50624;-75
2023/10/13 01:35:27;;;;;;;15.03;6.28;;;;;;;20.59;69.12;100734.42;2319840;76;50350;-75
2023/10/13 01:38:33;;;;;;;13.62;5.72;;;;;;;20.58;69.17;100734.94;2259012;76;24424;-74
2023/10/13 01:41:37;;;;;;;18.10;5.80;;;;;;;20.58;69.08;100742.17;2258686;76;22359;-75
2023/10/13 01:44:36;;;;;;;14.50;6.37;;;;;;;20.57;69.13;100737.28;2282755;76;22843;-74
2023/10/13 01:47:39;;;;;;;14.15;5.87;;;;;;;20.59;69.05;100735.23;2233552;76;49591;-74
2023/10/13 01:50:41;;;;;;;16.20;5.80;;;;;;;20.58;69.05;100738.14;2258223;76;51540;-73
2023/10/13 01:53:44;;;;;;;14.40;5.92;;;;;;;20.53;69.18;100740.03;2258049;76;51350;-73
2023/10/13 01:56:48;;;;;;;17.50;6.30;;;;;;;20.56;69.07;100737.50;2281560;76;51412;-73
2023/10/13 01:59:50;;;;;;;14.38;5.95;;;;;;;20.57;69.06;100732.43;2316920;76;22171;-75
2023/10/13 02:02:52;;;;;;;13.83;5.62;;;;;;;20.54;69.17;100734.98;2246523;78;52284;-75
2023/10/13 02:05:57;;;;;;;12.15;5.45;;;;;;;20.54;69.09;100728.27;2279846;76;51503;-75
2023/10/13 02:09:09;;;;;;;13.00;5.85;;;;;;;20.56;69.12;100732.13;2210934;78;22283;-75
2023/10/13 02:12:04;;;;;;;17.67;5.60;;;;;;;20.54;69.12;100726.92;2233622;78;22384;-74
2023/10/13 02:15:06;;;;;;;14.80;5.70;;;;;;;20.52;69.20;100727.59;2256718;76;51506;-75
2023/10/13 02:18:09;;;;;;;18.40;6.50;;;;;;;20.54;69.21;100722.03;2272522;76;50609;-75
2023/10/13 02:21:14;;;;;;;17.35;5.40;;;;;;;20.56;69.19;100711.44;2247545;78;51530;-75
2023/10/13 02:24:20;;;;;;;17.95;5.53;;;;;;;20.56;69.12;100705.24;2247879;77;50379;-74
2023/10/13 02:27:23;;;;;;;15.60;5.87;;;;;;;20.57;69.11;100698.83;2221141;76;51709;-69
2023/10/13 02:30:25;;;;;;;15.00;5.70;;;;;;;20.57;69.02;100691.59;2283976;76;50614;-75
2023/10/13 02:33:30;;;;;;;9.68;5.15;;;;;;;20.57;68.93;100685.38;2264657;76;51442;-75
2023/10/13 02:37:09;;;;;;;15.32;5.62;;;;;;;20.56;68.90;100685.08;2309902;76;52338;-75
2023/10/13 02:39:43;;;;;;;15.93;5.83;;;;;;;20.55;68.93;100692.80;2334725;74;22291;-72
2023/10/13 02:42:45;;;;;;;14.18;5.53;;;;;;;20.53;69.00;100682.75;2370645;74;51605;-72
2023/10/13 02:46:01;;;;;;;15.88;4.85;;;;;;;20.51;69.06;100688.83;2323432;74;51480;-75
2023/10/13 02:49:13;;;;;;;14.65;5.40;;;;;;;20.49;69.12;100691.70;2382772;74;50332;-74
2023/10/13 02:52:15;;;;;;;12.00;5.67;;;;;;;20.48;69.11;100687.36;2349278;74;52701;-75
2023/10/13 02:55:25;;;;;;;15.63;4.75;;;;;;;20.47;69.16;100680.83;2349550;74;50256;-75
2023/10/13 02:58:21;;;;;;;11.97;5.70;;;;;;;20.46;69.27;100675.97;2350521;74;22312;-75
2023/10/13 03:01:28;;;;;;;12.55;5.25;;;;;;;20.46;69.23;100674.63;2333749;76;50974;-75
2023/10/13 03:04:28;;;;;;;12.23;5.00;;;;;;;20.45;69.43;100674.32;2341218;76;22261;-75
2023/10/13 03:07:30;;;;;;;11.12;5.00;;;;;;;20.47;69.27;100672.24;2284257;76;51412;-76
2023/10/13 03:10:32;;;;;;;11.65;4.90;;;;;;;20.46;69.37;100663.87;2284149;76;51068;-76
2023/10/13 03:13:35;;;;;;;13.88;5.65;;;;;;;20.47;69.30;100657.98;2309501;76;50386;-75
2023/10/13 03:16:37;;;;;;;11.97;5.25;;;;;;;20.47;69.36;100649.92;2284194;76;51180;-75
2023/10/13 03:19:41;;;;;;;11.95;5.90;;;;;;;20.45;69.30;100649.61;2284164;76;50348;-75
2023/10/13 03:22:46;;;;;;;14.18;5.70;;;;;;;20.45;69.32;100636.69;2341358;76;50294;-76
2023/10/13 03:25:55;;;;;;;12.78;5.08;;;;;;;20.46;69.51;100642.38;2284930;76;50958;-74
2023/10/13 03:28:57;;;;;;;14.03;5.05;;;;;;;20.45;69.35;100638.86;2310719;76;22315;-75
2023/10/13 03:32:06;;;;;;;11.33;4.92;;;;;;;20.44;69.41;100629.64;2294434;76;24706;-75
2023/10/13 03:38:27;;;;;;;13.48;4.78;;;;;;;20.45;69.55;100617.88;2305674;76;22507;-76
2023/10/13 03:41:20;;;;;;;13.48;5.00;;;;;;;20.45;69.60;100608.47;2275795;77;22318;-75
2023/10/13 03:44:17;;;;;;;12.73;4.78;;;;;;;20.44;69.35;100604.11;2304145;76;22598;-71
2023/10/13 03:47:26;;;;;;;19.82;4.90;;;;;;;20.45;69.48;100603.09;2303481;77;50213;-72
2023/10/13 03:50:31;;;;;;;12.37;4.70;;;;;;;20.47;69.20;100600.19;2254815;77;22356;-73
2023/10/13 03:53:52;;;;;;;17.87;5.30;;;;;;;20.47;68.98;100594.30;2279438;77;50198;-73
2023/10/13 03:56:41;;;;;;;15.95;4.97;;;;;;;20.49;69.18;100603.00;2301231;76;22417;-73
2023/10/13 03:59:48;;;;;;;16.00;5.90;;;;;;;20.48;69.26;100603.22;2279293;77;50787;-73
2023/10/13 04:02:54;;;;;;;23.27;5.53;;;;;;;20.49;69.40;100603.00;2317141;76;22243;-73
2023/10/13 04:06:06;;;;;;;14.83;5.15;;;;;;;20.48;69.33;100593.29;2302844;76;22336;-74
2023/10/13 04:15:23;;;;;;;16.93;4.92;;;;;;;20.48;69.38;100586.57;2255915;76;22412;-73
2023/10/13 04:28:37;;;;;;;18.00;5.53;;;;;;;20.48;69.41;100582.53;2199344;77;22436;-72
2023/10/13 04:31:06;;;;;;;16.65;5.10;;;;;;;20.51;69.40;100579.45;2249604;76;22299;-72
2023/10/13 04:34:14;;;;;;;30.27;6.50;;;;;;;20.52;69.17;100581.09;2294891;76;22727;-73
2023/10/13 04:40:35;;;;;;;19.73;8.73;;;;;;;20.48;68.37;100564.24;2280669;75;22447;-72
2023/10/13 04:43:54;;;;;;;23.55;7.75;;;;;;;20.43;67.59;100558.11;2329212;75;23499;-73
2023/10/13 04:46:54;;;;;;;23.38;7.85;;;;;;;20.44;67.30;100556.55;2291015;76;22516;-73
2023/10/13 04:53:01;;;;;;;25.27;7.00;;;;;;;20.44;67.52;100539.08;2340829;76;22433;-73
2023/10/13 06:28:40;;;;;;;22.17;5.83;;;;;;;20.44;68.30;100528.84;2285097;76;22202;-75
2023/10/13 06:28:49;;;;;;;22.25;6.03;;;;;;;20.42;67.34;100491.94;2268494;76;22355;-77
2023/10/13 06:31:51;;;;;;;25.35;6.35;;;;;;;20.44;67.42;100508.70;2310491;76;50553;-76
2023/10/13 06:35:07;;;;;;;25.80;6.10;;;;;;;20.45;67.39;100505.00;2274034;76;51595;-75
2023/10/13 06:38:20;;;;;;;22.75;6.05;;;;;;;20.43;67.63;100513.25;2304584;76;51491;-74
2023/10/13 06:41:30;;;;;;;15.70;5.80;;;;;;;20.43;67.60;100508.39;2281574;76;22072;-77
2023/10/13 06:44:22;;;;;;;23.55;6.08;;;;;;;20.43;67.77;100507.05;2257593;77;22782;-75
2023/10/13 06:47:24;;;;;;;18.98;5.78;;;;;;;20.44;67.55;100514.07;2281116;76;22183;-77
2023/10/13 06:50:28;;;;;;;23.42;6.10;;;;;;;20.43;67.43;100510.56;2255898;77;51869;-75
2023/10/13 06:53:36;;;;;;;23.30;6.00;;;;;;;20.44;67.83;100508.17;2284174;77;22391;-76
2023/10/13 06:56:39;;;;;;;17.23;5.03;;;;;;;20.45;67.81;100505.82;2283076;77;21786;-74
2023/10/13 06:59:39;;;;;;;17.52;5.40;;;;;;;20.49;67.82;100496.83;2304769;76;22923;-77
2023/10/13 07:02:43;;;;;;;22.00;6.28;;;;;;;20.49;67.85;100496.01;2288856;76;51451;-75
2023/10/13 07:05:47;;;;;;;15.50;5.55;;;;;;;20.49;67.65;100495.48;2298188;76;22191;-75
2023/10/13 07:08:54;;;;;;;21.02;5.55;;;;;;;20.52;67.38;100496.42;2296205;76;22470;-77
2023/10/13 07:11:53;;;;;;;17.73;6.30;;;;;;;20.52;67.22;100495.61;2322497;76;22150;-74
2023/10/13 07:15:19;;;;;;;13.45;5.22;;;;;;;20.51;67.21;100496.12;2323684;76;50632;-74
2023/10/13 07:18:22;;;;;;;17.05;5.42;;;;;;;20.51;67.15;100491.27;2310401;76;22463;-77
2023/10/13 07:21:30;;;;;;;18.30;5.22;;;;;;;20.49;67.21;100500.86;2324485;76;21863;-75
2023/10/13 07:24:32;;;;;;;16.37;5.05;;;;;;;20.48;67.22;100497.87;2323848;76;22179;-77
2023/10/13 07:27:35;;;;;;;13.80;5.45;;;;;;;20.45;67.40;100496.94;2297527;76;50368;-76
2023/10/13 07:30:49;;;;;;;18.07;5.55;;;;;;;20.44;67.45;100490.70;2321453;76;51472;-77
2023/10/13 07:33:45;;;;;;;18.55;5.58;;;;;;;20.46;67.69;100491.86;2306546;76;22342;-76
2023/10/13 07:36:50;;;;;;;14.75;4.80;;;;;;;20.48;67.61;100493.84;2280732;77;49926;-76
2023/10/13 07:39:51;;;;;;;15.08;5.85;;;;;;;20.47;67.89;100479.25;2281258;77;22288;-75
2023/10/13 07:43:00;;;;;;;17.50;5.50;;;;;;;20.49;67.55;100473.98;2280578;77;51402;-75
2023/10/13 07:46:09;;;;;;;17.00;5.45;;;;;;;20.50;67.56;100470.28;2257393;77;22016;-76
2023/10/13 07:49:15;;;;;;;15.30;5.28;;;;;;;20.51;67.49;100467.91;2280687;77;22700;-76
2023/10/13 07:52:36;;;;;;;12.60;4.97;;;;;;;20.52;67.45;100466.86;2280481;76;22432;-76
2023/10/13 07:55:21;;;;;;;15.80;5.00;;;;;;;20.50;67.46;100463.57;2299732;76;22409;-76
2023/10/13 07:58:26;;;;;;;21.17;5.00;;;;;;;20.48;67.24;100469.66;2281331;77;22229;-76
2023/10/13 08:01:28;;;;;;;13.10;5.00;;;;;;;20.51;67.29;100466.56;2312862;76;50733;-77
2023/10/13 08:04:31;;;;;;;13.22;4.83;;;;;;;20.49;67.26;100460.55;2328866;76;50735;-77
2023/10/13 08:07:33;;;;;;;13.68;4.87;;;;;;;20.48;67.49;100462.94;2341198;76;51448;-77
2023/10/13 08:10:38;;;;;;;10.60;4.83;;;;;;;20.47;67.53;100454.53;2304817;76;51515;-75
2023/10/13 08:13:46;;;;;;;12.40;5.10;;;;;;;20.46;67.70;100455.58;2279046;76;50104;-77
2023/10/13 08:16:53;;;;;;;12.15;4.40;;;;;;;20.46;67.36;100452.89;2304616;76;21972;-77
2023/10/13 08:19:56;;;;;;;11.40;4.83;;;;;;;20.45;67.45;100451.25;2283459;76;50321;-76
2023/10/13 08:23:13;;;;;;;13.22;5.20;;;;;;;20.46;67.41;100447.52;2290118;76;51616;-73
2023/10/13 08:26:32;;;;;;;13.43;5.22;;;;;;;20.44;67.35;100442.33;2340536;76;51411;-77
2023/10/13 08:32:58;;;;;;;13.50;5.20;;;;;;;20.44;67.29;100434.27;2315426;76;22223;-78
2023/10/13 08:48:49;;;;;;;10.93;4.65;;;;;;;20.45;67.25;100425.19;2278181;76;22410;-77
2023/10/13 08:52:05;;;;;;;9.43;4.55;;;;;;;20.45;67.41;100417.66;2282522;76;50558;-77
2023/10/13 08:55:38;;;;;;;8.18;4.53;;;;;;;20.42;67.08;100416.69;2279040;78;22303;-76
2023/10/13 08:58:03;;;;;;;12.70;4.50;;;;;;;20.40;67.24;100416.91;2214144;79;21774;-75
2023/10/13 09:01:34;;;;;;;9.55;4.25;;;;;;;20.42;67.19;100408.62;2217032;79;22273;-74
2023/10/13 09:04:21;;;;;;;11.83;4.35;;;;;;;20.43;67.19;100399.03;2205663;78;21952;-76
2023/10/13 09:07:25;;;;;;;10.87;4.70;;;;;;;20.41;67.35;100395.70;2192774;80;50609;-75
2023/10/13 09:10:44;;;;;;;10.63;4.35;;;;;;;20.41;67.27;100396.23;2224585;78;50422;-73
2023/10/13 09:13:45;;;;;;;10.25;4.53;;;;;;;20.39;67.23;100397.76;2234973;78;21965;-76
2023/10/13 09:17:07;;;;;;;8.40;4.10;;;;;;;20.40;67.29;100396.75;2281390;76;50801;-75
2023/10/13 09:19:55;;;;;;;11.80;4.92;;;;;;;20.38;67.20;100392.08;2227291;78;21647;-75
2023/10/13 09:26:12;;;;;;;11.50;4.33;;;;;;;20.39;67.08;100392.38;2292432;76;22277;-76
2023/10/13 09:29:20;;;;;;;12.47;4.78;;;;;;;20.36;67.13;100382.05;2258433;76;51530;-76
2023/10/13 09:32:22;;;;;;;10.03;4.58;;;;;;;20.36;67.04;100386.07;2298992;77;50324;-76
2023/10/13 09:35:27;;;;;;;13.58;4.67;;;;;;;20.37;67.12;100377.48;2300383;76;50082;-70
2023/10/13 09:38:33;;;;;;;10.65;4.35;;;;;;;20.38;67.03;100375.95;2301436;76;21893;-76
2023/10/13 09:41:37;;;;;;;8.50;4.90;;;;;;;20.38;67.07;100367.90;2299874;76;50244;-73
2023/10/13 09:44:49;;;;;;;11.85;4.47;;;;;;;20.36;67.10;100359.20;2299656;76;51773;-75
2023/10/13 09:47:47;;;;;;;7.90;4.53;;;;;;;20.36;67.04;100353.00;2276551;77;22075;-75
2023/10/13 09:50:49;;;;;;;11.43;4.77;;;;;;;20.34;67.11;100345.66;2301155;76;21744;-76
2023/10/13 09:54:00;;;;;;;8.80;4.50;;;;;;;20.33;67.08;100335.95;2258251;77;51000;-76
2023/10/13 09:57:10;;;;;;;9.95;4.12;;;;;;;20.33;67.01;100331.92;2291608;76;22292;-76
2023/10/13 10:06:47;;;;;;;6.60;4.25;;;;;;;20.37;66.97;100307.63;2279463;76;21782;-76
2023/10/13 10:09:51;;;;;;;8.35;4.37;;;;;;;20.35;66.88;100307.84;2256761;77;21707;-76
2023/10/13 10:13:00;;;;;;;10.65;4.30;;;;;;;20.35;66.89;100302.47;2277756;76;51580;-76
2023/10/13 10:16:05;;;;;;;9.48;4.35;;;;;;;20.34;66.91;100301.31;2299195;76;51397;-76
2023/10/13 10:19:07;;;;;;;;;;;;;;;20.32;66.95;100298.00;2280531;76;51068;-77
2023/10/13 10:22:20;;;;;;;10.60;4.10;;;;;;;20.37;66.94;100310.31;2299359;77;50671;-76
2023/10/13 10:25:25;;;;;;;9.25;4.45;;;;;;;20.33;66.87;100313.11;2299698;76;21804;-75
2023/10/13 10:28:27;;;;;;;;;;;;;;;20.36;66.81;100303.30;2279917;77;52539;-76
2023/10/13 10:31:40;;;;;;;7.67;4.10;;;;;;;20.33;66.89;100305.88;2277161;77;51406;-77
2023/10/13 10:34:39;;;;;;;7.47;4.47;;;;;;;20.35;66.87;100303.81;2260865;77;22371;-76
2023/10/13 10:37:46;;;;;;;8.23;3.90;;;;;;;20.35;66.73;100295.75;2304130;76;52312;-75
2023/10/13 10:40:58;;;;;;;8.20;4.55;;;;;;;20.35;66.75;100299.78;2300293;76;22323;-76
2023/10/13 10:44:08;;;;;;;7.53;4.58;;;;;;;20.32;66.81;100288.11;2299616;76;51414;-77
2023/10/13 10:47:38;;;;;;;8.88;4.50;;;;;;;20.33;66.76;100287.59;2260783;76;22323;-77
2023/10/13 10:50:37;;;;;;;9.95;4.45;;;;;;;20.34;66.74;100289.23;2299535;76;22251;-77
2023/10/13 10:53:44;;;;;;;8.68;4.10;;;;;;;20.35;66.66;100270.75;2298906;76;50666;-77
2023/10/13 10:56:55;;;;;;;8.15;4.35;;;;;;;20.35;66.64;100267.54;2278954;76;51579;-77
2023/10/13 11:00:11;;;;;;;8.15;4.20;;;;;;;20.38;66.60;100267.65;2297709;76;22155;-77
2023/10/13 11:02:58;;;;;;;6.67;4.17;;;;;;;20.36;66.61;100260.30;2257754;76;22751;-77
2023/10/13 11:06:03;;;;;;;6.55;4.03;;;;;;;20.37;66.62;100247.16;2275616;77;50600;-77
2023/10/13 11:09:52;;;;;;;9.25;4.35;;;;;;;20.37;66.57;100244.48;2297190;76;22188;-77
2023/10/13 11:12:15;;;;;;;7.92;4.08;;;;;;;20.38;66.48;100243.47;2237557;77;22425;-76
2023/10/13 11:15:26;;;;;;;9.40;4.37;;;;;;;20.35;66.56;100229.10;2275882;76;50138;-77
2023/10/13 11:18:40;;;;;;;7.20;4.08;;;;;;;20.36;66.53;100219.47;2297529;76;22321;-77
2023/10/13 11:21:41;;;;;;;7.22;4.47;;;;;;;20.36;66.54;100233.43;2261406;77;22252;-77
2023/10/13 11:24:43;;;;;;;6.15;4.10;;;;;;;20.37;66.52;100214.92;2296832;77;50281;-78
2023/10/13 11:30:50;;;;;;;7.55;4.10;;;;;;;20.36;66.50;100225.38;2252607;77;22378;-75
2023/10/13 11:33:56;;;;;;;7.00;3.95;;;;;;;20.35;66.49;100211.64;2297616;76;51292;-76
2023/10/13 11:36:58;;;;;;;7.03;4.03;;;;;;;20.36;66.51;100213.28;2261266;77;22301;-77
2023/10/13 11:39:59;;;;;;;7.08;4.25;;;;;;;20.36;66.46;100204.69;2299645;76;22804;-77
2023/10/13 11:43:02;;;;;;;6.17;4.12;;;;;;;20.37;66.44;100202.34;2252963;77;50588;-76
2023/10/13 11:52:18;;;;;;;9.28;4.20;;;;;;;20.34;66.44;100183.09;2278139;77;22313;-76
2023/10/13 11:55:20;;;;;;;6.50;3.98;;;;;;;20.34;66.47;100184.44;2257830;76;50649;-78
2023/10/13 11:58:22;;;;;;;6.92;3.77;;;;;;;20.34;66.47;100185.78;2278316;77;49954;-76
2023/10/13 12:04:30;;;;;;;9.05;4.53;;;;;;;20.34;66.40;100180.41;2233645;76;51318;-74
2023/10/13 12:04:40;;;;;;;6.45;3.72;;;;;;;20.35;66.40;100177.52;2299481;76;22708;-77
2023/10/13 12:07:45;;;;;;;6.50;4.25;;;;;;;20.35;66.39;100178.05;2300045;76;22375;-77
2023/10/13 12:11:30;;;;;;;6.53;3.92;;;;;;;20.35;66.34;100171.33;2254890;77;22753;-76
2023/10/13 12:13:48;;;;;;;5.50;3.75;;;;;;;20.36;66.35;100155.51;2264250;76;22378;-77
2023/10/13 12:16:53;;;;;;;6.67;3.77;;;;;;;20.35;66.33;100149.31;2261183;77;50001;-75
2023/10/13 12:19:56;;;;;;;;;;;;;;;20.36;66.31;100156.33;2281828;77;50898;-74
2023/10/13 12:23:09;;;;;;;7.20;3.80;;;;;;;20.38;66.27;100152.92;2278637;77;50645;-77
2023/10/13 12:26:18;;;;;;;7.87;4.00;;;;;;;20.37;66.27;100142.37;2300586;76;22487;-76
2023/10/13 12:29:18;;;;;;;6.90;4.00;;;;;;;20.35;66.29;100133.19;2259366;76;22310;-76
2023/10/13 12:32:12;;;;;;;6.90;4.20;;;;;;;20.36;66.28;100124.61;2299430;76;22277;-76
2023/10/13 12:38:39;;;;;;;7.85;4.10;;;;;;;20.38;66.23;100122.02;2252707;77;22020;-77
2023/10/13 12:51:50;;;;;;;5.75;4.15;;;;;;;20.36;66.20;100103.11;2280365;77;22292;-77
2023/10/13 12:54:58;;;;;;;4.80;3.42;;;;;;;20.34;66.20;100093.91;2274443;77;21912;-77
2023/10/13 12:57:51;;;;;;;7.53;3.80;;;;;;;20.34;66.17;100075.62;2259677;77;22712;-77
2023/10/13 13:01:06;;;;;;;6.92;4.22;;;;;;;20.35;66.21;100070.57;2235695;77;52360;-77
2023/10/13 13:03:58;;;;;;;7.10;4.12;;;;;;;20.34;66.20;100077.78;2258660;77;21974;-77
2023/10/13 13:07:00;;;;;;;5.72;4.10;;;;;;;20.35;66.17;100082.66;2235033;77;52313;-77
2023/10/13 13:10:02;;;;;;;6.30;4.03;;;;;;;20.35;66.13;100070.05;2276662;76;50184;-77
2023/10/13 13:13:05;;;;;;;7.92;3.95;;;;;;;20.35;66.14;100053.11;2251949;77;51499;-77
2023/10/13 13:16:07;;;;;;;7.80;4.42;;;;;;;20.35;66.14;100045.87;2302101;76;52311;-74
2023/10/13 13:19:14;;;;;;;7.28;3.95;;;;;;;20.35;66.15;100036.46;2259708;77;50250;-75
2023/10/13 13:22:17;;;;;;;5.35;3.70;;;;;;;20.35;66.13;100038.33;2253213;77;50288;-76
2023/10/13 13:25:25;;;;;;;6.05;3.85;;;;;;;20.38;66.07;100036.56;2209898;76;52528;-76
2023/10/13 13:28:24;;;;;;;6.95;3.62;;;;;;;20.40;65.96;100037.19;2275625;77;21947;-76
2023/10/13 13:31:29;;;;;;;7.72;4.08;;;;;;;20.37;65.98;100031.71;2297998;76;50155;-76
2023/10/13 13:34:30;;;;;;;6.58;3.40;;;;;;;20.38;65.95;100025.81;2298348;76;22976;-77
2023/10/13 13:37:32;;;;;;;7.35;4.10;;;;;;;20.39;66.00;100018.87;2297285;76;52316;-76
2023/10/13 13:40:35;;;;;;;6.03;3.80;;;;;;;20.38;66.01;100028.50;2234234;77;52396;-77
2023/10/13 13:43:56;;;;;;;7.60;3.90;;;;;;;20.39;65.89;100025.58;2251222;77;51931;-77
2023/10/13 13:46:58;;;;;;;7.28;3.70;;;;;;;20.40;65.94;100031.81;2265325;77;51503;-77
2023/10/13 13:50:05;;;;;;;5.62;3.65;;;;;;;20.38;65.96;100021.26;2234601;76;51638;-76
2023/10/13 13:53:09;;;;;;;6.95;3.72;;;;;;;20.37;66.05;100018.27;2251107;77;22507;-76
2023/10/13 13:56:08;;;;;;;5.90;3.85;;;;;;;20.38;65.95;100016.41;2276148;77;22295;-77
2023/10/13 13:59:15;;;;;;;5.08;3.80;;;;;;;20.34;66.04;99999.86;2259349;77;51357;-76
2023/10/13 14:02:20;;;;;;;7.22;3.95;;;;;;;20.38;65.97;100007.00;2298412;76;22106;-74
2023/10/13 14:05:23;;;;;;;5.75;3.30;;;;;;;20.39;65.81;99991.17;2257996;76;52354;-76
2023/10/13 14:08:25;;;;;;;4.72;3.27;;;;;;;20.39;65.63;99989.83;2224615;77;50740;-76
2023/10/13 14:14:55;;;;;;;5.60;3.60;;;;;;;20.38;65.63;99975.58;2228061;78;22353;-76
2023/10/13 14:17:50;;;;;;;5.92;3.83;;;;;;;20.38;65.65;99985.50;2217813;79;22987;-77
2023/10/13 14:20:52;;;;;;;6.08;3.77;;;;;;;20.36;65.68;99975.48;2224617;77;51545;-76
2023/10/13 14:23:55;;;;;;;6.45;4.05;;;;;;;20.35;65.89;99973.31;2224596;79;51364;-76
2023/10/13 14:27:20;;;;;;;3.75;3.20;;;;;;;20.35;65.68;99966.60;2225088;77;51484;-77
2023/10/13 14:30:02;;;;;;;6.77;4.07;;;;;;;20.35;65.65;99971.98;2248947;78;22295;-78
2023/10/13 14:33:10;;;;;;;4.37;3.40;;;;;;;20.36;65.57;99974.14;2297062;76;50695;-76
2023/10/13 14:36:13;;;;;;;5.12;3.75;;;;;;;20.35;65.59;99963.92;2298721;76;22320;-74
2023/10/13 14:39:16;;;;;;;4.20;3.62;;;;;;;20.36;65.56;99963.39;2267904;77;52378;-77
2023/10/13 14:42:22;;;;;;;5.87;3.25;;;;;;;20.36;65.59;99958.02;2297469;77;50746;-77
2023/10/13 14:45:22;;;;;;;5.05;3.60;;;;;;;20.35;65.53;99951.01;2298148;76;22190;-76
2023/10/13 14:48:25;;;;;;;5.62;3.70;;;;;;;20.35;65.51;99943.77;2251587;77;50634;-76
2023/10/13 14:51:28;;;;;;;4.05;3.47;;;;;;;20.35;65.53;99944.29;2257949;77;50734;-75
2023/10/13 14:54:33;;;;;;;4.92;3.47;;;;;;;20.34;65.54;99940.75;2233024;77;52604;-76
2023/10/13 14:57:37;;;;;;;6.08;3.70;;;;;;;20.34;65.81;99930.53;2252805;77;50747;-76
2023/10/13 15:00:39;;;;;;;5.12;3.50;;;;;;;20.33;65.72;99931.58;2297806;77;51476;-76
2023/10/13 15:03:47;;;;;;;6.15;3.90;;;;;;;20.32;65.66;99919.16;2276667;77;50381;-77
2023/10/13 15:06:50;;;;;;;5.58;3.80;;;;;;;20.32;65.59;99922.70;2297493;76;50627;-76
2023/10/13 15:09:52;;;;;;;5.75;3.55;;;;;;;20.34;65.85;99930.53;2297600;77;50792;-77
2023/10/13 15:12:55;;;;;;;4.33;3.50;;;;;;;20.32;65.63;99916.48;2276642;77;50728;-76
2023/10/13 15:15:57;;;;;;;5.40;3.70;;;;;;;20.30;65.53;99918.05;2297573;76;51336;-76
2023/10/13 15:19:00;;;;;;;4.90;3.42;;;;;;;20.32;65.91;99917.82;2231839;77;51644;-76
2023/10/13 15:22:05;;;;;;;4.78;3.80;;;;;;;20.33;65.86;99914.94;2276497;77;50593;-76
2023/10/13 15:28:30;;;;;;;4.45;3.22;;;;;;;20.31;65.51;99912.97;2263682;77;21672;-76
2023/10/13 15:34:38;;;;;;;3.90;3.08;;;;;;;20.31;65.63;99909.47;2259550;76;21873;-76
2023/10/13 15:37:41;;;;;;;5.05;3.47;;;;;;;20.31;65.68;99904.09;2252049;77;51596;-77
2023/10/13 15:40:44;;;;;;;4.50;3.45;;;;;;;20.31;65.47;99898.72;2297901;76;51531;-76
2023/10/13 15:43:52;;;;;;;5.05;3.30;;;;;;;20.32;65.43;99893.64;2301812;77;51691;-77
2023/10/13 15:46:55;;;;;;;4.47;3.30;;;;;;;20.30;65.46;99889.02;2257105;77;31181;-75
2023/10/13 15:49:57;;;;;;;4.45;3.45;;;;;;;20.30;65.62;99886.34;2297396;77;50614;-77
2023/10/13 15:53:01;;;;;;;6.22;3.30;;;;;;;20.30;65.58;99883.65;2208974;77;52952;-76
2023/10/13 15:56:11;;;;;;;3.62;3.25;;;;;;;20.29;65.48;99874.74;2276755;77;21769;-77
2023/10/13 15:59:11;;;;;;;4.53;3.15;;;;;;;20.28;65.64;99873.11;2276929;77;22321;-76
2023/10/13 16:02:16;;;;;;;4.80;3.37;;;;;;;20.30;65.55;99875.06;2302697;76;51707;-76
2023/10/13 16:05:18;;;;;;;5.10;3.60;;;;;;;20.30;65.49;99872.91;2252882;76;22277;-77
2023/10/13 16:08:20;;;;;;;3.92;3.45;;;;;;;20.29;65.37;99861.83;2297946;77;50813;-77
2023/10/13 16:11:23;;;;;;;4.50;3.45;;;;;;;20.30;65.57;99854.91;2232491;77;51767;-75
2023/10/13 16:14:25;;;;;;;5.00;3.45;;;;;;;20.28;65.48;99858.33;2298024;77;51399;-75
2023/10/13 16:17:28;;;;;;;4.60;3.33;;;;;;;20.31;65.46;99860.58;2298384;76;50196;-75
2023/10/13 16:20:30;;;;;;;5.75;3.50;;;;;;;20.30;65.55;99848.20;2253202;77;51010;-76
2023/10/13 16:23:32;;;;;;;4.05;3.02;;;;;;;20.30;65.58;99841.48;2298492;76;49917;-75
2023/10/13 16:26:35;;;;;;;4.25;2.95;;;;;;;20.29;65.38;99842.50;2212164;77;51520;-76
2023/10/13 16:29:37;;;;;;;5.10;3.30;;;;;;;20.31;65.46;99844.98;2277953;77;50599;-75
2023/10/13 16:32:40;;;;;;;4.45;3.20;;;;;;;20.31;65.41;99847.67;2299423;76;51581;-73
2023/10/13 16:35:45;;;;;;;3.72;3.00;;;;;;;20.30;65.41;99839.32;2253707;76;51652;-77
2023/10/13 16:38:47;;;;;;;3.83;3.20;;;;;;;20.31;65.18;99840.95;2276106;76;50578;-76
2023/10/13 16:41:51;;;;;;;3.80;2.80;;;;;;;20.33;65.44;99832.17;2257148;77;51390;-76
2023/10/13 16:44:54;;;;;;;4.67;3.12;;;;;;;20.32;65.37;99824.64;2252225;76;50380;-75
2023/10/13 16:47:56;;;;;;;4.97;3.30;;;;;;;20.32;65.30;99826.47;2279009;77;50218;-76
2023/10/13 16:51:00;;;;;;;4.03;3.27;;;;;;;20.29;65.20;99834.97;2209462;77;51610;-75
2023/10/13 16:54:02;;;;;;;5.08;3.22;;;;;;;20.31;65.46;99838.27;2251204;77;51487;-74
2023/10/13 16:57:04;;;;;;;5.05;3.05;;;;;;;20.29;65.46;99834.97;2297769;76;50623;-73
2023/10/13 17:00:11;;;;;;;5.33;3.22;;;;;;;20.27;65.34;99833.86;2293820;76;52293;-74
2023/10/13 17:03:12;;;;;;;4.50;3.33;;;;;;;20.30;65.46;99840.14;2270361;77;22198;-76
2023/10/13 17:06:14;;;;;;;3.90;3.20;;;;;;;20.30;65.28;99833.42;2299225;76;50705;-77
2023/10/13 17:09:16;;;;;;;4.50;3.17;;;;;;;20.28;65.34;99835.50;2253224;77;50204;-76
2023/10/13 17:12:18;;;;;;;4.45;3.25;;;;;;;20.30;65.37;99831.27;2252934;76;50075;-77